Time;durP1;ratioP1;P1;durP2;ratioP2;P2;SDS_P1;SDS_P2;PMS_P1;PMS_P2;Temp;Humidity;BMP_temperature;BMP_pressure;BME280_temperature;BME280_humidity;BME280_pressure;Samples;Min_cycle;Max_cycle;Signal;HPM_P1;HPM_P2
2022/01/06 00:00:23;;;;;;;29.63;6.45;;;;;;;;;;5024997;28;20033;-79
2022/01/06 00:02:49;;;;;;;27.63;6.32;;;;;;;;;;5024517;28;20033;-79
2022/01/06 00:05:15;;;;;;;30.38;6.63;;;;;;;;;;5041198;28;20049;-79
2022/01/06 00:07:41;;;;;;;26.85;6.95;;;;;;;;;;5058536;28;20048;-78
2022/01/06 00:10:11;;;;;;;26.73;6.95;;;;;;;;;;5041028;28;20041;-79
2022/01/06 00:25:54;;;;;;;37.65;10.88;;;;;;;;;;5042716;28;20040;-80
2022/01/06 00:28:20;;;;;;;33.53;12.35;;;;;;;;;;5040740;28;20033;-79
2022/01/06 00:30:46;;;;;;;37.00;12.90;;;;;;;;;;5040576;28;20062;-80
2022/01/06 00:33:12;;;;;;;43.15;14.63;;;;;;;;;;5026607;28;20079;-77
2022/01/06 00:35:38;;;;;;;37.42;14.43;;;;;;;;;;5040219;28;20045;-80
2022/01/06 00:38:08;;;;;;;40.65;13.10;;;;;;;;;;5023122;28;20041;-78
2022/01/06 00:40:37;;;;;;;38.92;12.50;;;;;;;;;;5040305;28;20044;-78
2022/01/06 00:43:04;;;;;;;39.55;11.75;;;;;;;;;;5023498;28;20047;-78
2022/01/06 00:45:30;;;;;;;39.38;11.35;;;;;;;;;;5040133;28;20047;-81
2022/01/06 00:47:56;;;;;;;36.65;10.50;;;;;;;;;;5027223;28;20448;-82
2022/01/06 00:50:22;;;;;;;29.45;9.80;;;;;;;;;;5028544;28;20154;-81
2022/01/06 00:52:48;;;;;;;38.92;10.88;;;;;;;;;;5044566;28;20406;-81
2022/01/06 00:55:14;;;;;;;37.22;9.82;;;;;;;;;;5026348;28;20490;-82
2022/01/06 00:57:40;;;;;;;28.75;9.10;;;;;;;;;;5043926;28;20447;-81
2022/01/06 01:00:07;;;;;;;31.42;8.38;;;;;;;;;;5028314;28;20037;-83
2022/01/06 01:02:33;;;;;;;32.10;7.82;;;;;;;;;;5044353;28;20052;-82
2022/01/06 01:04:59;;;;;;;30.52;8.52;;;;;;;;;;5044500;28;20037;-81
2022/01/06 01:07:25;;;;;;;43.70;8.23;;;;;;;;;;5025075;28;20436;-78
2022/01/06 01:09:51;;;;;;;30.25;7.43;;;;;;;;;;5056387;28;20116;-78
2022/01/06 01:12:17;;;;;;;32.42;7.32;;;;;;;;;;5038753;28;20040;-77
2022/01/06 01:15:27;;;;;;;35.58;7.53;;;;;;;;;;5056563;28;20467;-77
2022/01/06 01:17:32;;;;;;;37.97;6.65;;;;;;;;;;5046376;28;20081;-77
2022/01/06 01:19:58;;;;;;;30.05;6.90;;;;;;;;;;5022792;28;20102;-78
2022/01/06 01:22:24;;;;;;;29.75;6.88;;;;;;;;;;5057449;28;20123;-79
2022/01/06 01:24:50;;;;;;;28.15;6.22;;;;;;;;;;5040803;28;20047;-77
2022/01/06 01:27:20;;;;;;;35.22;7.03;;;;;;;;;;5038793;28;20037;-78
2022/01/06 01:30:03;;;;;;;35.33;6.88;;;;;;;;;;5038257;28;20091;-79
2022/01/06 01:32:33;;;;;;;29.80;6.33;;;;;;;;;;5057382;28;20094;-78
2022/01/06 01:35:01;;;;;;;35.08;6.75;;;;;;;;;;5041616;28;20786;-78
2022/01/06 01:37:31;;;;;;;27.08;6.68;;;;;;;;;;5034624;28;20433;-77
2022/01/06 01:39:57;;;;;;;33.42;6.38;;;;;;;;;;5034970;28;20116;-77
2022/01/06 01:42:23;;;;;;;36.20;6.97;;;;;;;;;;5035596;28;20052;-76
2022/01/06 01:44:50;;;;;;;36.47;7.03;;;;;;;;;;5033121;28;20120;-78
2022/01/06 01:47:26;;;;;;;36.40;7.45;;;;;;;;;;5023088;28;20072;-78
2022/01/06 01:49:57;;;;;;;40.40;7.75;;;;;;;;;;5042649;28;20056;-83
2022/01/06 01:52:23;;;;;;;29.70;6.18;;;;;;;;;;5028815;28;20132;-82
2022/01/06 01:54:49;;;;;;;33.58;7.25;;;;;;;;;;5027231;28;20068;-82
2022/01/06 01:57:16;;;;;;;30.88;7.30;;;;;;;;;;5027600;28;20056;-82
2022/01/06 01:59:44;;;;;;;39.53;7.47;;;;;;;;;;5027906;28;20033;-82
2022/01/06 02:02:10;;;;;;;37.08;7.70;;;;;;;;;;5024892;28;20037;-79
2022/01/06 02:04:36;;;;;;;34.13;7.25;;;;;;;;;;5056571;28;20037;-78
2022/01/06 02:07:03;;;;;;;34.45;7.72;;;;;;;;;;5037858;28;20053;-79
2022/01/06 02:09:29;;;;;;;35.45;7.45;;;;;;;;;;5038724;28;20445;-78
2022/01/06 02:11:55;;;;;;;35.30;7.28;;;;;;;;;;5058673;28;20041;-78
2022/01/06 02:14:21;;;;;;;39.92;7.00;;;;;;;;;;5022775;28;20041;-77
2022/01/06 02:16:47;;;;;;;36.92;7.60;;;;;;;;;;5040918;28;20052;-77
2022/01/06 02:19:13;;;;;;;36.75;7.57;;;;;;;;;;5022759;28;20103;-78
2022/01/06 02:21:42;;;;;;;35.03;6.93;;;;;;;;;;5040031;28;20036;-79
2022/01/06 02:24:08;;;;;;;34.58;7.25;;;;;;;;;;5038094;28;20186;-76
2022/01/06 02:26:34;;;;;;;43.65;7.85;;;;;;;;;;5039821;28;20365;-77
2022/01/06 02:29:00;;;;;;;37.47;7.88;;;;;;;;;;5043508;28;20037;-78
2022/01/06 02:31:26;;;;;;;41.45;7.68;;;;;;;;;;5061760;28;20036;-78
2022/01/06 02:33:52;;;;;;;33.35;7.00;;;;;;;;;;5026111;28;20052;-77
2022/01/06 02:36:19;;;;;;;33.25;7.22;;;;;;;;;;5060993;28;20041;-78
2022/01/06 02:38:45;;;;;;;39.17;7.32;;;;;;;;;;5033917;28;20053;-78
2022/01/06 02:41:12;;;;;;;28.42;6.43;;;;;;;;;;5043408;28;20040;-78
2022/01/06 02:43:38;;;;;;;41.88;7.40;;;;;;;;;;5026023;28;20067;-79
2022/01/06 02:46:04;;;;;;;35.60;6.20;;;;;;;;;;5025341;28;20045;-77
2022/01/06 02:48:31;;;;;;;29.98;6.70;;;;;;;;;;5041294;28;20115;-78
2022/01/06 02:50:57;;;;;;;30.27;6.50;;;;;;;;;;5024334;28;20376;-77
2022/01/06 02:53:23;;;;;;;32.00;6.75;;;;;;;;;;5059135;28;20040;-78
2022/01/06 02:55:50;;;;;;;32.72;6.90;;;;;;;;;;5042644;28;20107;-78
2022/01/06 02:58:19;;;;;;;32.55;6.55;;;;;;;;;;5060867;28;20474;-78
2022/01/06 03:00:45;;;;;;;33.78;5.97;;;;;;;;;;5042518;28;20040;-79
2022/01/06 03:03:11;;;;;;;25.10;6.53;;;;;;;;;;5042543;28;20083;-78
2022/01/06 03:05:37;;;;;;;29.80;6.45;;;;;;;;;;5029656;28;20048;-80
2022/01/06 03:08:04;;;;;;;26.85;5.97;;;;;;;;;;5026539;28;20563;-79
2022/01/06 03:10:35;;;;;;;34.53;6.53;;;;;;;;;;5024244;28;20041;-78
2022/01/06 03:13:01;;;;;;;27.70;5.68;;;;;;;;;;5041557;28;20460;-77
2022/01/06 03:15:27;;;;;;;27.90;6.10;;;;;;;;;;5041287;28;20044;-78
2022/01/06 03:17:55;;;;;;;33.10;5.75;;;;;;;;;;5059245;28;20037;-78
2022/01/06 03:20:23;;;;;;;27.30;6.00;;;;;;;;;;5058791;28;20124;-78
2022/01/06 03:22:49;;;;;;;28.75;5.65;;;;;;;;;;5023951;28;20475;-78
2022/01/06 03:25:15;;;;;;;32.65;6.10;;;;;;;;;;5047295;28;20050;-77
2022/01/06 03:27:41;;;;;;;34.17;5.82;;;;;;;;;;5058267;28;20055;-77
2022/01/06 03:30:08;;;;;;;30.48;5.70;;;;;;;;;;5042693;28;20464;-78
2022/01/06 03:32:34;;;;;;;29.58;5.93;;;;;;;;;;5043671;28;20481;-82
2022/01/06 03:35:01;;;;;;;29.42;6.50;;;;;;;;;;5045080;28;20037;-81
2022/01/06 03:37:27;;;;;;;32.78;6.22;;;;;;;;;;5028665;28;20456;-82
2022/01/06 03:39:53;;;;;;;32.67;6.90;;;;;;;;;;5028001;28;20116;-83
2022/01/06 03:42:19;;;;;;;30.70;6.30;;;;;;;;;;5029357;28;20049;-79
2022/01/06 03:44:45;;;;;;;42.28;6.45;;;;;;;;;;5024764;28;20033;-82
2022/01/06 03:47:11;;;;;;;42.35;7.30;;;;;;;;;;5042861;28;20098;-78
2022/01/06 03:49:37;;;;;;;42.85;6.60;;;;;;;;;;5042661;28;20049;-81
2022/01/06 03:52:03;;;;;;;29.73;6.78;;;;;;;;;;5026639;28;20063;-79
2022/01/06 03:54:29;;;;;;;36.65;6.00;;;;;;;;;;5026579;28;20045;-78
2022/01/06 03:56:56;;;;;;;35.55;5.90;;;;;;;;;;5057547;28;20391;-77
2022/01/06 03:59:22;;;;;;;28.50;6.35;;;;;;;;;;5039508;28;20033;-78
2022/01/06 04:01:48;;;;;;;39.33;7.03;;;;;;;;;;5025592;28;20051;-79
2022/01/06 04:04:14;;;;;;;29.45;6.55;;;;;;;;;;5027771;28;20108;-81
2022/01/06 04:06:40;;;;;;;36.72;7.28;;;;;;;;;;5041713;28;20037;-77
2022/01/06 04:09:06;;;;;;;29.73;6.60;;;;;;;;;;5027797;28;20044;-82
2022/01/06 04:11:32;;;;;;;32.10;6.95;;;;;;;;;;5045513;28;20047;-82
2022/01/06 04:13:59;;;;;;;27.30;6.93;;;;;;;;;;5054584;28;20036;-81
2022/01/06 04:16:26;;;;;;;43.08;7.10;;;;;;;;;;5062503;28;20039;-80
2022/01/06 04:18:52;;;;;;;29.33;7.75;;;;;;;;;;5024948;28;20045;-77
2022/01/06 04:21:18;;;;;;;28.70;7.38;;;;;;;;;;5042738;28;20067;-81
2022/01/06 04:23:47;;;;;;;28.80;7.10;;;;;;;;;;5028041;28;20033;-82
2022/01/06 04:26:13;;;;;;;37.88;7.47;;;;;;;;;;5044312;28;20106;-81
2022/01/06 04:28:40;;;;;;;37.80;7.78;;;;;;;;;;5044171;28;20052;-81
2022/01/06 04:31:06;;;;;;;35.10;7.65;;;;;;;;;;5027593;28;20051;-82
2022/01/06 04:33:33;;;;;;;48.15;8.32;;;;;;;;;;5027584;28;20041;-80
2022/01/06 04:35:59;;;;;;;30.55;7.78;;;;;;;;;;5043356;28;20125;-78
2022/01/06 04:38:26;;;;;;;34.58;7.53;;;;;;;;;;5059645;28;20116;-77
2022/01/06 04:40:52;;;;;;;34.30;7.57;;;;;;;;;;5031178;28;20033;-82
2022/01/06 04:43:18;;;;;;;41.85;8.98;;;;;;;;;;5044002;28;20037;-81
2022/01/06 04:45:44;;;;;;;33.65;7.18;;;;;;;;;;5045523;28;20033;-83
2022/01/06 04:48:10;;;;;;;32.00;7.95;;;;;;;;;;5027079;28;20111;-82
2022/01/06 04:50:36;;;;;;;28.00;7.55;;;;;;;;;;5026921;28;20067;-81
2022/01/06 04:53:02;;;;;;;41.42;8.18;;;;;;;;;;5058393;28;20036;-81
2022/01/06 04:55:28;;;;;;;36.85;7.85;;;;;;;;;;5062992;28;20037;-83
2022/01/06 04:57:54;;;;;;;31.75;7.68;;;;;;;;;;5044961;28;20045;-82
2022/01/06 05:00:21;;;;;;;40.55;8.48;;;;;;;;;;5044880;28;20037;-82
2022/01/06 05:02:47;;;;;;;47.88;8.50;;;;;;;;;;5073776;28;20032;-79
2022/01/06 05:05:15;;;;;;;44.72;7.35;;;;;;;;;;5036750;28;20045;-78
2022/01/06 05:07:42;;;;;;;44.45;7.80;;;;;;;;;;5040474;28;20037;-78
2022/01/06 05:10:08;;;;;;;35.50;7.50;;;;;;;;;;5021852;28;20056;-77
2022/01/06 05:12:34;;;;;;;34.55;7.07;;;;;;;;;;5021900;28;20049;-78
2022/01/06 05:15:00;;;;;;;39.20;7.22;;;;;;;;;;5022391;28;20360;-80
2022/01/06 05:17:26;;;;;;;38.47;6.45;;;;;;;;;;5058294;28;20053;-78
2022/01/06 05:19:52;;;;;;;34.60;7.47;;;;;;;;;;5040891;28;20051;-78
2022/01/06 05:22:18;;;;;;;35.95;7.00;;;;;;;;;;5023298;28;20044;-77
2022/01/06 05:24:44;;;;;;;30.17;6.05;;;;;;;;;;5041383;28;20128;-78
2022/01/06 05:27:10;;;;;;;30.77;6.63;;;;;;;;;;5022757;28;20072;-80
2022/01/06 05:29:36;;;;;;;29.50;6.00;;;;;;;;;;5038443;28;20112;-78
2022/01/06 05:32:02;;;;;;;34.35;6.50;;;;;;;;;;5021817;28;20476;-78
2022/01/06 05:34:28;;;;;;;33.03;6.43;;;;;;;;;;5021903;28;20044;-79
2022/01/06 05:36:54;;;;;;;36.90;6.05;;;;;;;;;;5039614;28;20043;-78
2022/01/06 05:39:20;;;;;;;35.95;6.60;;;;;;;;;;5039470;28;20040;-78
2022/01/06 05:41:46;;;;;;;40.42;7.30;;;;;;;;;;5040078;28;20051;-79
2022/01/06 05:44:12;;;;;;;32.13;6.63;;;;;;;;;;5040391;28;20119;-79
2022/01/06 05:46:38;;;;;;;36.80;7.00;;;;;;;;;;5022968;28;20113;-78
2022/01/06 05:49:04;;;;;;;38.35;7.05;;;;;;;;;;5022582;28;20508;-79
2022/01/06 05:51:30;;;;;;;32.72;6.57;;;;;;;;;;5050377;28;20037;-77
2022/01/06 05:53:56;;;;;;;30.70;7.15;;;;;;;;;;5048514;28;20068;-77
2022/01/06 05:56:22;;;;;;;43.95;7.68;;;;;;;;;;5039160;28;20480;-78
2022/01/06 05:58:49;;;;;;;38.45;7.80;;;;;;;;;;5039512;28;20077;-78
2022/01/06 06:01:15;;;;;;;44.63;7.18;;;;;;;;;;5038653;28;20068;-77
2022/01/06 06:03:41;;;;;;;40.25;7.65;;;;;;;;;;5027087;28;20064;-77
2022/01/06 06:06:07;;;;;;;34.20;7.88;;;;;;;;;;5045130;28;20440;-78
2022/01/06 06:08:33;;;;;;;31.35;7.65;;;;;;;;;;5026905;28;20052;-78
2022/01/06 06:10:59;;;;;;;41.58;7.80;;;;;;;;;;5042499;28;20040;-78
2022/01/06 06:13:25;;;;;;;39.30;7.68;;;;;;;;;;5032185;28;20404;-80
2022/01/06 06:15:51;;;;;;;34.63;7.00;;;;;;;;;;5048997;28;20090;-81
2022/01/06 06:18:17;;;;;;;22.08;6.75;;;;;;;;;;5030691;28;20063;-79
2022/01/06 06:20:43;;;;;;;36.38;7.55;;;;;;;;;;5049001;28;20330;-79
2022/01/06 06:23:09;;;;;;;35.13;8.23;;;;;;;;;;5032342;28;20037;-81
2022/01/06 06:25:35;;;;;;;40.30;8.40;;;;;;;;;;5033046;28;20040;-81
2022/01/06 06:28:01;;;;;;;41.00;8.57;;;;;;;;;;5049880;28;20094;-81
2022/01/06 06:30:27;;;;;;;39.47;9.02;;;;;;;;;;5049615;28;20044;-80
2022/01/06 06:32:53;;;;;;;38.55;9.00;;;;;;;;;;5048580;28;20048;-80
2022/01/06 06:35:19;;;;;;;50.00;9.90;;;;;;;;;;5035029;28;20070;-79
2022/01/06 06:37:45;;;;;;;36.78;8.10;;;;;;;;;;5049449;28;20048;-80
2022/01/06 06:40:11;;;;;;;31.13;8.95;;;;;;;;;;5057263;28;20366;-81
2022/01/06 06:42:37;;;;;;;36.55;8.50;;;;;;;;;;5025941;28;20106;-78
2022/01/06 06:45:03;;;;;;;44.67;9.90;;;;;;;;;;5025142;28;20037;-78
2022/01/06 06:47:30;;;;;;;35.53;9.30;;;;;;;;;;5024834;28;20037;-78
2022/01/06 06:49:59;;;;;;;38.33;9.52;;;;;;;;;;5044238;28;20117;-80
2022/01/06 06:52:25;;;;;;;38.92;9.70;;;;;;;;;;5042378;28;20049;-77
2022/01/06 06:54:53;;;;;;;44.25;10.05;;;;;;;;;;5040818;28;20037;-77
2022/01/06 06:57:19;;;;;;;39.08;9.48;;;;;;;;;;5041586;28;20123;-78
2022/01/06 06:59:45;;;;;;;36.88;9.27;;;;;;;;;;5024173;28;20452;-77
2022/01/06 07:02:11;;;;;;;42.33;9.65;;;;;;;;;;5041919;28;20041;-77
2022/01/06 07:04:37;;;;;;;46.47;10.80;;;;;;;;;;5041515;28;20051;-78
2022/01/06 07:07:03;;;;;;;37.83;10.50;;;;;;;;;;5042822;28;20041;-77
2022/01/06 07:09:29;;;;;;;36.60;9.90;;;;;;;;;;5058452;28;20045;-77
2022/01/06 07:11:55;;;;;;;43.38;10.60;;;;;;;;;;5077618;28;20032;-74
2022/01/06 07:14:21;;;;;;;41.17;9.88;;;;;;;;;;5048403;28;20085;-81
2022/01/06 07:16:48;;;;;;;39.83;10.20;;;;;;;;;;5034006;28;20120;-78
2022/01/06 07:19:15;;;;;;;33.97;9.85;;;;;;;;;;5064287;28;20041;-80
2022/01/06 07:21:41;;;;;;;37.83;9.98;;;;;;;;;;5031395;28;20043;-80
2022/01/06 07:24:07;;;;;;;32.00;10.25;;;;;;;;;;5066871;28;20092;-81
2022/01/06 07:26:33;;;;;;;33.17;9.18;;;;;;;;;;5036195;28;20060;-81
2022/01/06 07:28:59;;;;;;;38.75;9.57;;;;;;;;;;5058979;28;20041;-81
2022/01/06 07:31:25;;;;;;;38.55;10.05;;;;;;;;;;5055292;28;20041;-81
2022/01/06 07:33:51;;;;;;;44.35;10.88;;;;;;;;;;5041817;28;20430;-80
2022/01/06 07:36:17;;;;;;;42.30;11.40;;;;;;;;;;5029367;28;20040;-81
2022/01/06 07:38:43;;;;;;;41.67;10.70;;;;;;;;;;5042726;28;20040;-78
2022/01/06 07:41:09;;;;;;;39.97;10.35;;;;;;;;;;5043310;28;20033;-80
2022/01/06 07:43:35;;;;;;;46.03;11.65;;;;;;;;;;5045416;28;20071;-79
2022/01/06 07:46:01;;;;;;;44.22;11.27;;;;;;;;;;5043491;28;20040;-78
2022/01/06 07:48:37;;;;;;;45.60;11.10;;;;;;;;;;5040871;28;20053;-78
2022/01/06 07:51:03;;;;;;;41.28;11.20;;;;;;;;;;5042846;28;20223;-78
2022/01/06 07:53:29;;;;;;;33.85;10.68;;;;;;;;;;5041803;28;20041;-78
2022/01/06 07:55:55;;;;;;;42.97;10.80;;;;;;;;;;5025400;28;20111;-78
2022/01/06 07:58:21;;;;;;;35.55;10.90;;;;;;;;;;5025418;28;20041;-78
2022/01/06 08:00:47;;;;;;;45.65;11.90;;;;;;;;;;5026562;28;20033;-80
2022/01/06 08:03:13;;;;;;;44.35;11.73;;;;;;;;;;5044801;28;20045;-81
2022/01/06 08:05:39;;;;;;;32.42;10.70;;;;;;;;;;5044374;28;20052;-81
2022/01/06 08:08:05;;;;;;;42.58;10.43;;;;;;;;;;5028728;28;20045;-80
2022/01/06 08:10:31;;;;;;;43.28;11.45;;;;;;;;;;5044638;28;20041;-81
2022/01/06 08:12:58;;;;;;;44.22;11.95;;;;;;;;;;5029543;28;20036;-81
2022/01/06 08:15:24;;;;;;;34.38;11.10;;;;;;;;;;5044740;28;20428;-81
2022/01/06 08:17:50;;;;;;;34.90;11.00;;;;;;;;;;5046530;28;20032;-81
2022/01/06 08:20:16;;;;;;;33.97;10.85;;;;;;;;;;5046509;28;20033;-80
2022/01/06 08:22:42;;;;;;;43.10;12.23;;;;;;;;;;5030983;28;20060;-81
2022/01/06 08:25:08;;;;;;;36.38;11.63;;;;;;;;;;5029205;28;20037;-81
2022/01/06 08:27:34;;;;;;;42.75;11.27;;;;;;;;;;5030410;28;20360;-82
2022/01/06 08:30:00;;;;;;;41.88;12.25;;;;;;;;;;5047790;28;20047;-81
2022/01/06 08:32:26;;;;;;;39.60;12.10;;;;;;;;;;5046342;28;20508;-79
2022/01/06 08:34:52;;;;;;;35.75;11.82;;;;;;;;;;5042610;28;20094;-79
2022/01/06 08:37:18;;;;;;;43.35;12.43;;;;;;;;;;5063904;28;20112;-80
2022/01/06 08:39:44;;;;;;;49.78;12.88;;;;;;;;;;5026270;28;20064;-80
2022/01/06 08:42:12;;;;;;;54.42;12.60;;;;;;;;;;5043309;28;20052;-81
2022/01/06 08:44:39;;;;;;;52.25;13.10;;;;;;;;;;5026316;28;20097;-79
2022/01/06 08:47:06;;;;;;;47.83;11.73;;;;;;;;;;5025677;28;20427;-81
2022/01/06 08:49:32;;;;;;;54.25;13.32;;;;;;;;;;5042470;28;20100;-79
2022/01/06 08:51:58;;;;;;;37.13;12.02;;;;;;;;;;5063411;28;20048;-82
2022/01/06 08:54:24;;;;;;;50.60;11.57;;;;;;;;;;5036573;28;20115;-81
2022/01/06 08:56:50;;;;;;;33.80;11.55;;;;;;;;;;5046610;28;20055;-80
2022/01/06 08:59:16;;;;;;;39.28;11.77;;;;;;;;;;5045161;28;20147;-82
2022/01/06 09:01:42;;;;;;;49.13;11.85;;;;;;;;;;5046234;28;20052;-83
2022/01/06 09:04:08;;;;;;;41.25;11.57;;;;;;;;;;5044576;28;20040;-79
2022/01/06 09:06:34;;;;;;;42.05;12.07;;;;;;;;;;5029159;28;20037;-83
2022/01/06 09:09:00;;;;;;;42.25;11.02;;;;;;;;;;5028836;28;20524;-83
2022/01/06 09:11:26;;;;;;;47.72;11.18;;;;;;;;;;5029357;28;20132;-84
2022/01/06 09:13:52;;;;;;;39.75;10.70;;;;;;;;;;5064738;28;20037;-81
2022/01/06 09:16:18;;;;;;;39.90;10.57;;;;;;;;;;5064867;28;20043;-82
2022/01/06 09:18:44;;;;;;;48.20;10.35;;;;;;;;;;5044303;28;20120;-83
2022/01/06 09:21:10;;;;;;;47.75;10.50;;;;;;;;;;5029943;28;20056;-83
2022/01/06 09:23:36;;;;;;;39.60;9.60;;;;;;;;;;5029491;28;20040;-82
2022/01/06 09:26:03;;;;;;;41.95;10.02;;;;;;;;;;5046091;28;20043;-82
2022/01/06 09:28:29;;;;;;;52.05;10.45;;;;;;;;;;5047310;28;20087;-83
2022/01/06 09:30:56;;;;;;;35.38;9.52;;;;;;;;;;5031936;28;20060;-83
2022/01/06 09:33:22;;;;;;;44.88;9.70;;;;;;;;;;5048111;28;20036;-83
2022/01/06 09:35:48;;;;;;;42.47;9.52;;;;;;;;;;5048745;28;20037;-83
2022/01/06 09:38:14;;;;;;;43.92;9.93;;;;;;;;;;5046938;28;20044;-83
2022/01/06 09:40:41;;;;;;;36.28;9.98;;;;;;;;;;5031238;28;20033;-83
2022/01/06 09:43:07;;;;;;;44.53;10.50;;;;;;;;;;5065483;28;20029;-82
2022/01/06 09:45:35;;;;;;;38.65;10.18;;;;;;;;;;5026340;28;20048;-80
2022/01/06 09:48:01;;;;;;;43.65;11.93;;;;;;;;;;5025460;28;20036;-80
2022/01/06 09:50:27;;;;;;;47.90;10.45;;;;;;;;;;5027899;28;20045;-82
2022/01/06 09:52:53;;;;;;;53.72;11.85;;;;;;;;;;5044849;28;20041;-81
2022/01/06 09:55:21;;;;;;;43.00;12.00;;;;;;;;;;5026523;28;20217;-83
2022/01/06 09:57:55;;;;;;;47.58;12.82;;;;;;;;;;5027017;28;20155;-81
2022/01/06 10:00:21;;;;;;;50.58;15.65;;;;;;;;;;5025531;28;20463;-81
2022/01/06 10:02:52;;;;;;;51.90;14.82;;;;;;;;;;5040501;28;20033;-80
2022/01/06 10:05:18;;;;;;;46.80;16.75;;;;;;;;;;5042445;28;20368;-82
2022/01/06 10:07:44;;;;;;;44.67;19.23;;;;;;;;;;5042281;28;20143;-81
2022/01/06 10:10:11;;;;;;;61.05;22.98;;;;;;;;;;5026870;28;20432;-82
2022/01/06 10:12:39;;;;;;;56.95;21.48;;;;;;;;;;5027674;28;20448;-81
2022/01/06 10:15:14;;;;;;;65.28;23.48;;;;;;;;;;5027178;28;20055;-81
2022/01/06 10:17:40;;;;;;;63.13;22.10;;;;;;;;;;5026424;28;20040;-82
2022/01/06 10:20:10;;;;;;;60.85;22.73;;;;;;;;;;5026075;28;20048;-81
2022/01/06 10:23:03;;;;;;;66.13;23.20;;;;;;;;;;5026225;28;20029;-81
2022/01/06 10:25:30;;;;;;;69.25;27.38;;;;;;;;;;5039563;28;20138;-79
2022/01/06 10:27:56;;;;;;;70.10;28.27;;;;;;;;;;5040129;28;20044;-80
2022/01/06 10:30:23;;;;;;;75.75;29.38;;;;;;;;;;5022766;28;20471;-78
2022/01/06 10:32:49;;;;;;;78.30;30.75;;;;;;;;;;5024956;28;20074;-82
2022/01/06 10:35:20;;;;;;;75.65;29.88;;;;;;;;;;5043775;28;20047;-82
2022/01/06 10:37:48;;;;;;;75.00;30.42;;;;;;;;;;5043664;28;20369;-82
2022/01/06 10:40:16;;;;;;;67.25;29.05;;;;;;;;;;5026615;28;20045;-83
2022/01/06 10:42:43;;;;;;;73.15;29.88;;;;;;;;;;5025741;28;20037;-81
2022/01/06 10:45:13;;;;;;;76.93;29.67;;;;;;;;;;5024796;28;20033;-80
2022/01/06 10:47:43;;;;;;;73.90;30.88;;;;;;;;;;5041017;28;20044;-80
2022/01/06 10:50:12;;;;;;;71.32;30.42;;;;;;;;;;5044926;28;20102;-79
2022/01/06 10:52:39;;;;;;;73.80;31.58;;;;;;;;;;5045004;28;20075;-81
2022/01/06 10:55:09;;;;;;;70.50;30.83;;;;;;;;;;5046767;28;20052;-81
2022/01/06 10:57:35;;;;;;;75.15;31.77;;;;;;;;;;5029052;28;20072;-81
2022/01/06 11:00:01;;;;;;;83.13;31.77;;;;;;;;;;5046997;28;20037;-79
2022/01/06 11:02:27;;;;;;;81.00;32.28;;;;;;;;;;5030420;28;20037;-81
2022/01/06 11:04:53;;;;;;;70.15;30.80;;;;;;;;;;5031069;28;20437;-78
2022/01/06 11:07:19;;;;;;;70.20;31.88;;;;;;;;;;5046390;28;20047;-79
2022/01/06 11:09:48;;;;;;;71.60;31.88;;;;;;;;;;5030941;28;20045;-78
2022/01/06 11:12:26;;;;;;;71.25;29.50;;;;;;;;;;5046463;28;20476;-78
2022/01/06 11:14:53;;;;;;;70.75;29.73;;;;;;;;;;5048159;28;20544;-82
2022/01/06 11:17:21;;;;;;;69.90;30.13;;;;;;;;;;5031601;28;20040;-82
2022/01/06 11:19:48;;;;;;;71.85;30.80;;;;;;;;;;5047621;28;20033;-80
2022/01/06 11:22:14;;;;;;;81.15;31.70;;;;;;;;;;5032534;28;20037;-80
2022/01/06 11:24:40;;;;;;;85.53;33.00;;;;;;;;;;5050581;28;20037;-79
2022/01/06 11:27:08;;;;;;;69.85;33.38;;;;;;;;;;5052806;28;20086;-80
2022/01/06 11:29:38;;;;;;;77.20;34.10;;;;;;;;;;5040583;28;20040;-81
2022/01/06 11:32:05;;;;;;;82.82;35.55;;;;;;;;;;5058407;28;20033;-81
2022/01/06 11:34:40;;;;;;;81.28;36.85;;;;;;;;;;5040230;28;20037;-80
2022/01/06 11:37:10;;;;;;;85.78;36.15;;;;;;;;;;5054149;28;20039;-81
2022/01/06 11:39:36;;;;;;;80.25;35.45;;;;;;;;;;5075778;28;20025;-78
2022/01/06 11:42:11;;;;;;;82.95;36.47;;;;;;;;;;5069412;28;20041;-80
2022/01/06 11:44:37;;;;;;;74.40;36.28;;;;;;;;;;5031307;28;20156;-81
2022/01/06 11:47:04;;;;;;;78.53;36.10;;;;;;;;;;5030472;28;20116;-81
2022/01/06 11:49:34;;;;;;;71.53;35.10;;;;;;;;;;5047047;28;20068;-80
2022/01/06 11:52:04;;;;;;;73.68;35.67;;;;;;;;;;5030194;28;20041;-81
2022/01/06 11:54:30;;;;;;;71.70;35.10;;;;;;;;;;5066750;28;20112;-80
2022/01/06 11:56:57;;;;;;;79.75;34.78;;;;;;;;;;5046311;28;20037;-81
2022/01/06 11:59:30;;;;;;;90.10;35.33;;;;;;;;;;5046417;28;20456;-82
2022/01/06 12:01:56;;;;;;;77.05;34.50;;;;;;;;;;5045201;28;20094;-81
2022/01/06 12:04:22;;;;;;;78.00;33.80;;;;;;;;;;5045947;28;20435;-81
2022/01/06 12:06:48;;;;;;;75.05;35.22;;;;;;;;;;5045600;28;20107;-81
2022/01/06 12:09:18;;;;;;;86.45;35.25;;;;;;;;;;5029182;28;20041;-80
2022/01/06 12:11:44;;;;;;;73.03;34.60;;;;;;;;;;5028263;28;20056;-80
2022/01/06 12:14:11;;;;;;;81.50;35.97;;;;;;;;;;5028832;28;20045;-81
2022/01/06 12:16:37;;;;;;;83.47;35.97;;;;;;;;;;5042981;28;20365;-82
2022/01/06 12:19:17;;;;;;;90.25;37.85;;;;;;;;;;5054704;28;20040;-81
2022/01/06 12:21:43;;;;;;;94.18;38.55;;;;;;;;;;5041827;28;20044;-80
2022/01/06 12:24:09;;;;;;;91.85;38.58;;;;;;;;;;5061733;28;20033;-79
2022/01/06 12:26:35;;;;;;;87.90;38.70;;;;;;;;;;5044364;28;20037;-80
2022/01/06 12:29:01;;;;;;;85.75;36.35;;;;;;;;;;5057243;28;20045;-83
2022/01/06 12:31:28;;;;;;;88.38;34.35;;;;;;;;;;5044788;28;20037;-82
2022/01/06 12:34:02;;;;;;;81.18;35.80;;;;;;;;;;5031662;28;20094;-80
2022/01/06 12:36:29;;;;;;;67.18;30.73;;;;;;;;;;5055612;28;20065;-79
2022/01/06 12:38:56;;;;;;;73.45;32.33;;;;;;;;;;5049661;28;20048;-82
2022/01/06 12:41:29;;;;;;;68.70;30.90;;;;;;;;;;5046136;28;20111;-81
2022/01/06 12:43:55;;;;;;;;;;;;;;;;;;5030441;28;20123;-80
2022/01/06 12:46:22;;;;;;;73.50;29.63;;;;;;;;;;5077624;28;19921;-77
2022/01/06 12:48:52;;;;;;;68.78;30.90;;;;;;;;;;5044458;28;20041;-82
2022/01/06 12:51:18;;;;;;;83.63;32.60;;;;;;;;;;5047011;28;20384;-83
2022/01/06 12:53:45;;;;;;;67.28;31.83;;;;;;;;;;5068940;28;20048;-81
2022/01/06 12:56:31;;;;;;;80.13;33.92;;;;;;;;;;5046200;28;20041;-82
2022/01/06 12:58:58;;;;;;;79.68;34.13;;;;;;;;;;5063733;28;20045;-82
2022/01/06 13:01:24;;;;;;;77.00;32.08;;;;;;;;;;5031041;28;20037;-83
2022/01/06 13:03:53;;;;;;;73.40;32.88;;;;;;;;;;5047216;28;20040;-82
2022/01/06 13:06:23;;;;;;;76.05;31.90;;;;;;;;;;5049183;28;20122;-82
2022/01/06 13:08:50;;;;;;;73.68;31.35;;;;;;;;;;5047780;28;20045;-81
2022/01/06 13:11:16;;;;;;;72.22;31.20;;;;;;;;;;5055858;28;20045;-81
2022/01/06 13:13:44;;;;;;;69.57;30.45;;;;;;;;;;5044021;28;20037;-80
2022/01/06 13:16:17;;;;;;;76.22;30.48;;;;;;;;;;5061848;28;20033;-82
2022/01/06 13:18:43;;;;;;;;;;;;;;;;;;5062201;28;20041;-81
2022/01/06 13:21:09;;;;;;;79.25;31.83;;;;;;;;;;5049530;28;19999;-82
2022/01/06 13:26:05;;;;;;;75.97;31.70;;;;;;;;;;5064083;28;20040;-82
2022/01/06 13:28:31;;;;;;;73.72;31.35;;;;;;;;;;5030937;28;20037;-83
2022/01/06 13:30:57;;;;;;;78.60;31.80;;;;;;;;;;5047620;28;20052;-82
2022/01/06 13:33:24;;;;;;;81.50;31.98;;;;;;;;;;5031649;28;20043;-81
2022/01/06 13:35:51;;;;;;;71.40;32.10;;;;;;;;;;5048213;28;20041;-83
2022/01/06 13:38:21;;;;;;;75.25;32.25;;;;;;;;;;5033455;28;20101;-82
2022/01/06 13:40:50;;;;;;;71.93;33.10;;;;;;;;;;5074195;28;20041;-82
2022/01/06 13:43:18;;;;;;;76.50;33.38;;;;;;;;;;5038401;28;20025;-79
2022/01/06 13:45:47;;;;;;;78.05;33.53;;;;;;;;;;5076776;28;20048;-79
2022/01/06 13:48:39;;;;;;;76.15;32.80;;;;;;;;;;5055297;28;20049;-83
2022/01/06 13:51:08;;;;;;;79.78;33.33;;;;;;;;;;5049028;28;20045;-82
2022/01/06 13:53:37;;;;;;;82.00;33.60;;;;;;;;;;5044435;28;20044;-81
2022/01/06 13:56:10;;;;;;;74.47;34.28;;;;;;;;;;5044414;28;20048;-81
2022/01/06 13:58:36;;;;;;;;;;;;;;;;;;5028315;28;20064;-81
2022/01/06 14:01:03;;;;;;;78.43;32.40;;;;;;;;;;5062189;28;19962;-82
2022/01/06 14:03:31;;;;;;;73.03;33.03;;;;;;;;;;5027252;28;20029;-81
2022/01/06 14:05:57;;;;;;;76.80;33.42;;;;;;;;;;5028873;28;20033;-81
2022/01/06 14:08:23;;;;;;;67.85;33.17;;;;;;;;;;5054744;28;20044;-79
2022/01/06 14:10:49;;;;;;;82.53;32.78;;;;;;;;;;5032121;28;20040;-82
2022/01/06 14:13:15;;;;;;;82.80;32.42;;;;;;;;;;5046236;28;20056;-83
2022/01/06 14:15:41;;;;;;;73.63;31.95;;;;;;;;;;5029409;28;20059;-82
2022/01/06 14:18:07;;;;;;;66.70;31.38;;;;;;;;;;5027979;28;20046;-81
2022/01/06 14:20:33;;;;;;;74.75;30.08;;;;;;;;;;5060018;28;20116;-81
2022/01/06 14:22:59;;;;;;;71.35;29.27;;;;;;;;;;5061736;28;20029;-82
2022/01/06 14:25:25;;;;;;;73.05;28.90;;;;;;;;;;5045632;28;20047;-81
2022/01/06 14:27:51;;;;;;;59.88;27.70;;;;;;;;;;5046153;28;20033;-81
2022/01/06 14:30:19;;;;;;;66.32;28.75;;;;;;;;;;5046171;28;20445;-81
2022/01/06 14:32:47;;;;;;;63.50;26.75;;;;;;;;;;5048502;28;20041;-82
2022/01/06 14:35:13;;;;;;;65.32;25.33;;;;;;;;;;5030650;28;20091;-82
2022/01/06 14:37:39;;;;;;;48.88;24.60;;;;;;;;;;5048844;28;20032;-83